KFAR/FAR METAR and TAF weather

Enter ICAO airport designator
Station Type Date Time Source
KFAR METAR 2019/06/27 09:53 UTC NOAA

KFAR 270953Z AUTO 09004KT 10SM FEW065 19/15 A3000 RMK AO2 SLP157 T01940150


Station Type Date Time Source
KFAR Decoded METAR 2019/06/27 09:53 UTC NOAA

HECTOR INTERNATIONAL AIRPORT , ND, United States (KFAR) 46-56N 096-49W 277M
Jun 27, 2019 - 05:53 AM EDT / 2019.06.27 0953 UTC
Wind: from the E (090 degrees) at 5 MPH (4 KT):0
Visibility: 10 mile(s):0
Sky conditions: mostly clear
Temperature: 66.9 F (19.4 C)
Dew Point: 59.0 F (15.0 C)
Relative Humidity: 75%
Pressure (altimeter): 30 in. Hg (1015 hPa)
ob: KFAR 270953Z AUTO 09004KT 10SM FEW065 19/15 A3000 RMK AO2 SLP157 T01940150
cycle: 10

Station Type Date Time Source
KFAR TAF 2019/06/27 06:22 UTC NOAA

TAF KFAR 270520Z 2706/2806 VRB04KT P6SM FEW250
FM271400 10008KT P6SM VCTS SCT035CB BKN150
FM271600 09008KT P6SM BKN100

Example: see airport list